Delta Virtual Airport Information Service

Eagle County Regional Airport

ICAO: KEGE Country: United States
Latitude: 39.6426 Longitude: -106.917
Latest Arrival : DAC6936 (KBFI-KEGE) Latest Departure : SKW5853 (KEGE-KDEN)


WX CaptureLIVE
Data provided by noaa.gov | Fetched at 11:15:56

METAR : KEGE 231656Z 00000KT 10SM OVC010 02/01 A2997 RMK AO2 SLP171 T00220011 PNO $

TAF : KEGE 231536Z 2316/2412 VRB03KT P6SM OVC012 FM231700 VRB03KT P6SM BKN030 FM232000 21006KT P6SM VCSH BKN090 FM240400 VRB03KT 6SM -SHRASN BR SCT040 OVC045 FM240800 VRB03KT 4SM -SHSNRA BR SCT016 OVC050


Runway Data for KEGE
Data provided by openaviationdata.com

Runway ID Mag Var Hdg Length Elevation Surface ILS Freq ILS Id ILS Slope
7 11 70° 7987 ft 6489 ft Asphalt -- -- --
25 11 250° 7987 ft 6489 ft Asphalt 110.1 IEGE 0

Eagle County Regional Airport, United States
Use only for reference purposes



Not for navigational purposes.